Historyczne dane pomiarowe

Dodano dane terminowe – wersja testowa.

Dane z okresu 1951-2019

Wersja bazy: 1.34 [2019-03-16, lista zmian], aktualizacja planowana na 2019-04-15

Dane meteo z obszaru Polski uzyskane na podstawie danych udostępnionych przez Instytut Meteorologii i Gospodarki Wodnej – Państwowy Instytut Badawczy.

 

Wybierz Datę:    

       

TemperaturaWilgotnośćWiatrCiśnienieOpadyŚniegCzas trwania zjawisk
 Stacja t tx tn tng RH VA  wxwx mslp ppp RRR   cm mm wxwxwxwxwxwxwx
1961-08-14 14.9 19.5 9.6- 75.0- 1.3 1.7---- 0.0------------
1961-08-13 13.9 19.3 12.4- 94.3- 8.0 3.0---- 3.9------------
1961-08-12 20.5 25.5 17.6- 86.0- 4.0 1.3---- 16.0------------
1961-08-11 26.8 33.5 19.6- 62.3- 2.7 5.0---- 1.9------------
1961-08-10 25.0 30.7 18.9- 68.5- 1.0 3.3---- 0.0------------
1961-08-09 23.7 29.6 16.4- 76.0- 0.7 1.7---- 0.0------------
1961-08-08 22.2 26.3 17.4- 79.0- 5.3 1.7---- 0.0------------
1961-08-07 25.1 30.5 16.8- 60.3- 0.0 2.0---- 0.0------------
1961-08-06 22.7 29.0 13.4- 66.5- 0.0 2.3---- 0.0------------
1961-08-05 17.6 23.8 13.5- 81.0- 7.3 2.0---- 0.0------------
1961-08-04 16.1 20.7 14.3- 76.5- 3.7 2.3---- 0.0------------
1961-08-03 18.0 24.9 10.5- 79.3- 4.0 2.3---- 14.6------------
1961-08-02 19.0 25.6 9.0- 68.8- 0.3 1.7---- 0.0------------
1961-08-01 16.6 22.3 10.6- 74.8- 1.7 1.3---- 0.0------------
1961-07-31 14.2 19.8 11.1- 80.8- 4.3 2.0---- 0.0------------
1961-07-30 13.0 17.1 11.2- 91.5- 7.7 3.0---- 11.5------------
1961-07-29 15.8 21.1 12.5- 88.3- 6.7 4.7---- 28.7------------
1961-07-28 22.7 28.7 17.7- 66.0- 4.0 2.3---- 0.0------------
1961-07-27 22.3 26.8 10.7- 52.8- 3.7 4.3---- 0.0------------
1961-07-26 15.4 20.9 9.3- 70.3- 4.7 0.7---- 0.0------------
1961-07-25 13.6 18.2 11.3- 70.5- 3.3 1.7---- 0.0------------
1961-07-24 15.6 19.1 13.6- 69.3- 7.3 1.7---- 0.0------------
1961-07-23 17.2 21.5 10.6- 70.0- 4.7 1.7---- 0.0------------
1961-07-22 15.4 20.6 12.6- 79.0- 2.7 2.0---- 1.3------------
1961-07-21 15.0 21.1 12.3- 83.8- 5.0 3.7---- 4.5------------
1961-07-20 15.3 21.1 8.2- 85.5- 7.3 2.3---- 10.6------------
1961-07-19 15.2 22.7 7.7- 76.8- 3.7 1.0---- 0.0------------
1961-07-18 15.0 20.0 11.7- 73.5- 3.0 2.7---- 0.0------------
1961-07-17 16.5 23.2 13.7- 82.5- 4.3 1.7---- 4.6------------
1961-07-16 19.1 26.6 12.9- 73.5- 5.3 2.7---- 4.9------------
1961-07-15 19.9 25.3 8.8- 61.0- 2.0 2.7---- 0.0------------
1961-07-14 14.9 21.4 13.1- 83.0- 5.0 2.3---- 1.4------------
1961-07-13 23.0 29.6 14.9- 60.5- 3.7 7.0---- 1.4------------
1961-07-12 20.5 27.5 9.7- 62.8- 4.0 0.7---- 0.0------------
1961-07-11 16.0 21.0 9.1- 62.8- 3.7 2.3---- 0.0------------
1961-07-10 14.2 20.4 10.9- 80.3- 5.7 4.0---- 0.9------------
1961-07-09 16.7 25.0 7.1- 67.3- 3.7 2.7---- 0.6------------
1961-07-08 15.4 20.7 11.3- 68.3- 2.7 1.0---- 0.0------------
1961-07-07 14.7 19.6 7.3- 64.3- 5.3 2.7---- 0.0------------
1961-07-06 14.1 19.5 9.4- 68.0- 2.3 1.7---- 0.8------------
1961-07-05 15.8 21.2 13.8- 71.3- 8.0 4.0---- 1.1------------
1961-07-04 23.5 31.3 13.8- 63.5- 3.0 3.3---- 0.0------------
1961-07-03 21.1 29.4 12.4- 63.5- 0.0 1.7---- 0.0------------
1961-07-02 20.3 27.2 12.0- 66.8- 0.0 1.3---- 0.0------------
1961-07-01 20.0 25.6 11.7- 62.5- 2.0 3.0---- 0.0------------
1961-06-30 17.2 22.3 13.2- 73.5- 4.3 1.3---- 0.0------------
1961-06-29 16.0 19.6 8.7- 72.5- 5.3 3.7---- 0.0------------
1961-06-28 15.3 25.1 12.1- 86.0- 3.7 3.7---- 5.3------------
1961-06-27 25.6 31.1 15.8- 53.8- 1.3 3.0---- 0.0------------
1961-06-26 23.5 30.6 19.2- 71.5- 3.0 2.7---- 0.0------------
1961-06-25 22.4 28.7 11.1- 62.0- 0.3 1.7---- 0.0------------
1961-06-24 20.1 26.0 13.3- 63.8- 2.0 2.7---- 0.0------------
1961-06-23 18.4 22.6 13.6- 75.5- 4.7 3.3---- 4.6------------
1961-06-22 17.8 23.4 12.6- 75.0- 0.0 1.0---- 0.0------------
1961-06-21 17.8 23.4 7.9- 72.8- 2.3 1.3---- 0.0------------
1961-06-20 16.7 20.8 14.9- 59.5- 3.3 4.0---- 0.0------------
1961-06-19 22.4 29.0 16.2- 72.8- 3.3 4.0---- 0.0------------
1961-06-18 18.9 25.5 9.3- 67.3- 3.3 1.0---- 0.0------------
1961-06-17 15.6 21.5 8.3- 72.3- 1.0 1.7---- 0.0------------
1961-06-16 14.5 19.0 11.4- 66.0- 0.3 2.0---- 0.0------------
432.6 ms

 

Źródłem pochodzenia danych jest Instytut Meteorologii i Gospodarki Wodnej – Państwowy Instytut Badawczy. Dane Instytutu Meteorologii i Gospodarki Wodnej – Państwowego Instytutu Badawczego zostały przetworzone.

Dane źródłowe można odnaleźć na stronie https://dane.imgw.pl